createdAt,value
2019-04-05T00:01:39.062Z,100648.94
2019-04-05T00:04:12.915Z,100648.94
2019-04-05T00:06:46.631Z,100640.14
2019-04-05T00:09:20.742Z,100619.27
2019-04-05T00:11:54.556Z,100635.62
2019-04-05T00:14:28.331Z,100640.87
2019-04-05T00:17:02.092Z,100640.87
2019-04-05T00:19:35.787Z,100651.23
2019-04-05T00:22:10.252Z,100646.23
2019-04-05T00:24:44.019Z,100646.23
2019-04-05T00:27:17.766Z,100645.25
2019-04-05T00:29:51.453Z,100645.25
2019-04-05T00:32:25.381Z,100645.83
2019-04-05T00:34:59.076Z,100642.16
2019-04-05T00:37:33.097Z,100640.33
2019-04-05T00:40:08.131Z,100640.58
2019-04-05T00:42:42.218Z,100642.77
2019-04-05T00:45:27.438Z,100636.30
2019-04-05T00:47:51.545Z,100636.30
2019-04-05T00:50:25.648Z,100649.24
2019-04-05T00:52:59.526Z,100649.24
2019-04-05T00:55:33.393Z,100664.23
2019-04-05T00:58:07.187Z,100664.23
2019-04-05T01:00:41.213Z,100658.26
2019-04-05T01:03:14.932Z,100658.26
2019-04-05T01:05:48.782Z,100658.73
2019-04-05T01:08:22.764Z,100659.06
2019-04-05T01:10:56.609Z,100660.70
2019-04-05T01:13:30.969Z,100665.47
2019-04-05T01:16:04.669Z,100665.47
2019-04-05T01:18:38.655Z,100670.22
2019-04-05T01:21:14.729Z,100678.28
2019-04-05T01:23:50.135Z,100681.21
2019-04-05T01:26:24.681Z,100691.60
2019-04-05T01:28:58.504Z,100684.16
2019-04-05T01:31:32.345Z,100684.16
2019-04-05T01:34:06.350Z,100680.38
2019-04-05T01:36:40.128Z,100688.44
2019-04-05T01:39:14.137Z,100688.19
2019-04-05T01:41:48.988Z,100683.80
2019-04-05T01:44:23.067Z,100692.22
2019-04-05T01:46:56.833Z,100692.22
2019-04-05T01:49:30.543Z,100685.26
2019-04-05T01:52:04.391Z,100681.84
2019-04-05T01:54:38.130Z,100682.81
2019-04-05T01:57:12.212Z,100687.70
2019-04-05T01:59:46.215Z,100687.70
2019-04-05T02:02:19.974Z,100675.66
2019-04-05T02:04:53.958Z,100654.78
2019-04-05T02:07:28.407Z,100655.72
2019-04-05T02:10:02.325Z,100674.27
2019-04-05T02:12:36.468Z,100688.72
2019-04-05T04:50:54.266Z,100741.72
2019-04-05T04:53:28.658Z,100744.27
2019-04-05T04:56:02.483Z,100742.47
2019-04-05T04:58:36.344Z,100745.89
2019-04-05T05:01:10.498Z,100755.52
2019-04-05T05:03:44.471Z,100755.52
2019-04-05T05:06:18.369Z,100755.28
2019-04-05T05:08:52.326Z,100759.66
2019-04-05T05:11:26.629Z,100757.59
2019-04-05T05:14:00.773Z,100739.28
2019-04-05T05:16:34.703Z,100734.28
2019-04-05T05:19:08.750Z,100734.28
2019-04-05T05:21:43.122Z,100744.52
2019-04-05T05:24:16.976Z,100748.91
2019-04-05T05:26:51.159Z,100753.20
2019-04-05T05:29:25.573Z,100753.20
2019-04-05T05:31:59.740Z,100756.97
2019-04-05T05:34:33.693Z,100755.37
2019-04-05T05:37:07.568Z,100757.81
2019-04-05T05:39:41.356Z,100754.02
2019-04-05T05:42:15.093Z,100776.22
2019-04-05T05:44:48.782Z,100769.15
2019-04-05T05:47:23.009Z,100774.52
2019-04-05T05:49:56.695Z,100775.16
2019-04-05T05:52:31.319Z,100766.14
2019-04-05T05:55:05.571Z,100766.14
2019-04-05T05:57:39.311Z,100757.83
2019-04-05T06:00:14.440Z,100767.97
2019-04-05T06:02:48.662Z,100767.97
2019-04-05T06:05:22.378Z,100770.39
2019-04-05T06:07:56.137Z,100790.91
2019-04-05T06:10:30.108Z,100793.34
2019-04-05T06:13:06.633Z,100793.34
2019-04-05T06:15:39.739Z,100795.91
2019-04-05T06:18:13.543Z,100795.91
2019-04-05T06:20:47.232Z,100779.91
2019-04-05T06:23:32.971Z,100773.22
2019-04-05T06:25:56.591Z,100792.39
2019-04-05T06:28:30.414Z,100802.27
2019-04-05T06:31:04.129Z,100802.27
2019-04-05T06:33:37.923Z,100797.98
2019-04-05T06:36:11.618Z,100815.17
2019-04-05T06:38:45.368Z,100815.17
2019-04-05T06:41:19.371Z,100811.17
2019-04-05T06:43:53.107Z,100821.40
2019-04-05T06:46:26.803Z,100815.89
2019-04-05T06:49:00.536Z,100815.89
2019-04-05T06:51:34.241Z,100820.41
2019-04-05T06:54:08.066Z,100821.52
2019-04-05T06:56:41.834Z,100816.53
2019-04-05T06:59:15.563Z,100815.33
2019-04-05T07:01:49.572Z,100815.33
2019-04-05T07:04:23.324Z,100812.50
2019-04-05T07:06:57.103Z,100815.68
2019-04-05T07:09:33.948Z,100815.68
2019-04-05T07:12:06.653Z,100818.83
2019-04-05T07:14:40.393Z,100817.03
2019-04-05T07:17:14.106Z,100823.83
2019-04-05T07:19:47.829Z,100823.83
2019-04-05T07:22:33.508Z,100827.20
2019-04-05T07:24:57.254Z,100820.77
2019-04-05T07:27:30.947Z,100820.77
2019-04-05T07:30:04.988Z,100831.94
2019-04-05T07:32:39.862Z,100828.22
2019-04-05T07:35:13.865Z,100839.00
2019-04-05T07:37:47.568Z,100841.97
2019-04-05T07:40:23.007Z,100830.09
2019-04-05T07:42:56.700Z,100837.25
2019-04-05T07:45:30.451Z,100835.59
2019-04-05T07:48:04.150Z,100839.06
2019-04-05T07:50:37.886Z,100845.17
2019-04-05T07:53:11.588Z,100851.85
2019-04-05T07:55:45.330Z,100852.55
2019-04-05T07:58:19.029Z,100858.89
2019-04-05T08:00:55.140Z,100863.14
2019-04-05T08:03:28.800Z,100861.84
2019-04-05T08:06:03.058Z,100848.42
2019-04-05T08:09:09.330Z,100849.86
2019-04-05T08:11:45.422Z,100856.70
2019-04-05T08:14:20.520Z,100857.02
2019-04-05T08:16:54.430Z,100859.93
2019-04-05T08:19:28.125Z,100864.20
2019-04-05T08:22:01.859Z,100870.28
2019-04-05T08:24:35.556Z,100870.70
2019-04-05T08:27:09.287Z,100876.20
2019-04-05T08:29:42.992Z,100883.44
2019-04-05T08:32:16.728Z,100889.77
2019-04-05T08:34:50.758Z,100885.91
2019-04-05T08:37:24.501Z,100889.97
2019-04-05T08:39:58.212Z,100887.59
2019-04-05T08:42:31.979Z,100880.55
2019-04-05T08:45:06.345Z,100881.94
2019-04-05T08:47:40.091Z,100883.84
2019-04-05T08:50:15.804Z,100880.92
2019-04-05T08:52:49.879Z,100883.58
2019-04-05T08:55:23.586Z,100878.27
2019-04-05T08:57:57.332Z,100867.91
2019-04-05T09:00:31.361Z,100873.58
2019-04-05T09:03:05.195Z,100871.15
2019-04-05T09:05:38.893Z,100866.10
2019-04-05T09:08:12.723Z,100873.42
2019-04-05T09:10:46.500Z,100871.44
2019-04-05T09:13:20.245Z,100866.81
2019-04-05T09:15:53.947Z,100870.09
2019-04-05T09:18:27.764Z,100877.37
2019-04-05T09:21:01.540Z,100874.70
2019-04-05T09:23:35.727Z,100877.73
2019-04-05T09:26:09.503Z,100879.42
2019-04-05T09:28:43.240Z,100876.87
2019-04-05T09:31:16.948Z,100877.67
2019-04-05T09:33:50.986Z,100876.92
2019-04-05T09:36:25.371Z,100874.31
2019-04-05T09:38:59.106Z,100869.70
2019-04-05T09:41:32.818Z,100874.00
2019-04-05T09:44:06.897Z,100874.95
2019-04-05T09:46:47.031Z,100866.72
2019-04-05T09:49:16.073Z,100868.98
2019-04-05T09:51:49.779Z,100853.38
2019-04-05T09:54:23.779Z,100859.39
2019-04-05T09:56:57.488Z,100862.55
2019-04-05T09:59:31.223Z,100864.66
2019-04-05T10:02:05.025Z,100864.12
2019-04-05T10:04:38.758Z,100860.99
2019-04-05T10:07:12.533Z,100856.30
2019-04-05T10:09:46.260Z,100857.42
2019-04-05T10:12:19.968Z,100858.38
2019-04-05T10:14:53.716Z,100861.69
2019-04-05T10:17:27.420Z,100867.41
2019-04-05T10:20:01.177Z,100867.66
2019-04-05T10:22:34.883Z,100876.56
2019-04-05T10:25:08.865Z,100867.63
2019-04-05T10:27:42.573Z,100865.45
2019-04-05T10:30:17.255Z,100864.30
2019-04-05T10:32:50.972Z,100860.42
2019-04-05T10:35:24.876Z,100863.15
2019-04-05T10:37:58.649Z,100862.48
2019-04-05T10:40:32.683Z,100865.64
2019-04-05T10:43:06.531Z,100866.83
2019-04-05T10:45:40.523Z,100858.34
2019-04-05T10:48:14.239Z,100861.73
2019-04-05T10:50:48.405Z,100858.84
2019-04-05T10:53:22.109Z,100855.98
2019-04-05T10:55:55.851Z,100842.59
2019-04-05T10:58:29.557Z,100850.52
2019-04-05T11:01:03.352Z,100846.78
2019-04-05T11:03:37.044Z,100834.60
2019-04-05T11:06:10.823Z,100839.36
2019-04-05T11:08:44.765Z,100835.38
2019-04-05T11:11:18.566Z,100835.94
2019-04-05T11:13:52.563Z,100837.41
2019-04-05T11:16:26.282Z,100843.88
2019-04-05T11:19:01.904Z,100839.84
2019-04-05T11:21:35.497Z,100842.52
2019-04-05T11:24:09.593Z,100844.39
2019-04-05T11:26:43.314Z,100844.60
2019-04-05T11:29:17.080Z,100849.19
2019-04-05T11:31:57.345Z,100845.77
2019-04-05T11:34:26.606Z,100845.14
2019-04-05T11:37:02.836Z,100851.58
2019-04-05T11:39:37.320Z,100845.62
2019-04-05T11:42:11.317Z,100845.45
2019-04-05T11:44:48.358Z,100843.39
2019-04-05T11:47:22.266Z,100845.42
2019-04-05T11:49:57.710Z,100847.09
2019-04-05T11:52:31.576Z,100839.30
2019-04-05T11:55:05.977Z,100838.49
2019-04-05T11:57:41.422Z,100839.30
2019-04-05T12:00:20.357Z,100849.88
2019-04-05T12:02:58.068Z,100851.80
2019-04-05T12:05:31.769Z,100850.91
2019-04-05T12:08:06.537Z,100855.71
2019-04-05T12:10:40.319Z,100854.70
2019-04-05T12:13:14.041Z,100861.58
2019-04-05T12:15:47.810Z,100860.63
2019-04-05T12:18:21.718Z,100858.62
2019-04-05T12:21:00.010Z,100852.01
2019-04-05T12:23:33.388Z,100846.70
2019-04-05T12:26:06.967Z,100846.30
2019-04-05T12:28:40.952Z,100841.65
2019-04-05T12:31:15.393Z,100848.06
2019-04-05T12:33:51.352Z,100840.50
2019-04-05T12:36:24.543Z,100844.94
2019-04-05T12:38:58.288Z,100841.77
2019-04-05T12:41:31.993Z,100837.53
2019-04-05T12:44:05.873Z,100832.94
2019-04-05T12:46:39.646Z,100838.61
2019-04-05T12:49:15.313Z,100838.23
2019-04-05T12:51:49.189Z,100836.70
2019-04-05T12:54:22.928Z,100834.28
2019-04-05T12:56:58.131Z,100836.27
2019-04-05T12:59:32.075Z,100836.39
2019-04-05T13:02:05.837Z,100839.46
2019-04-05T13:04:39.585Z,100828.92
2019-04-05T13:07:13.269Z,100829.83
2019-04-05T13:09:47.126Z,100825.34
2019-04-05T13:12:20.822Z,100815.11
2019-04-05T13:14:56.741Z,100818.67
2019-04-05T13:17:31.326Z,100810.03
2019-04-05T13:20:06.472Z,100817.00
2019-04-05T13:22:40.177Z,100811.46
2019-04-05T13:25:13.968Z,100805.84
2019-04-05T13:27:47.661Z,100807.53
2019-04-05T13:30:21.560Z,100811.73
2019-04-05T13:32:55.339Z,100802.31
2019-04-05T13:35:29.055Z,100807.92
2019-04-05T13:38:02.750Z,100799.60
2019-04-05T13:40:36.658Z,100802.64
2019-04-05T13:43:10.748Z,100801.61
2019-04-05T13:45:44.477Z,100797.89
2019-04-05T13:48:18.175Z,100800.76
2019-04-05T13:50:51.893Z,100800.78
2019-04-05T13:53:25.870Z,100800.26
2019-04-05T13:55:59.708Z,100795.83
2019-04-05T13:58:33.397Z,100795.63
2019-04-05T14:01:07.329Z,100796.52
2019-04-05T14:03:41.016Z,100796.53
2019-04-05T14:06:14.856Z,100800.56
2019-04-05T14:08:48.550Z,100801.69
2019-04-05T14:11:22.270Z,100797.31
2019-04-05T14:13:55.962Z,100789.06
2019-04-05T14:16:29.946Z,100791.58
2019-04-05T14:19:03.714Z,100793.02
2019-04-05T14:21:40.824Z,100789.64
2019-04-05T14:24:13.141Z,100783.41
2019-04-05T14:26:46.889Z,100778.86
2019-04-05T14:29:20.699Z,100777.67
2019-04-05T14:31:54.602Z,100772.06
2019-04-05T14:34:28.601Z,100768.48
2019-04-05T14:37:02.338Z,100763.73
2019-04-05T14:39:36.034Z,100756.79
2019-04-05T14:42:12.356Z,100760.02
2019-04-05T14:44:45.333Z,100762.90
2019-04-05T14:47:20.051Z,100758.49
2019-04-05T14:49:53.749Z,100756.79
2019-04-05T14:52:28.854Z,100755.08
2019-04-05T14:55:03.073Z,100751.68
2019-04-05T14:57:37.885Z,100752.36
2019-04-05T15:00:15.021Z,100752.53
2019-04-05T15:02:48.009Z,100754.57
2019-04-05T15:05:21.700Z,100746.28
2019-04-05T15:07:55.765Z,100743.38
2019-04-05T15:10:29.726Z,100746.09
2019-04-05T15:13:03.436Z,100745.25
2019-04-05T15:15:37.122Z,100743.02
2019-04-05T15:18:12.497Z,100743.83
2019-04-05T15:20:46.263Z,100739.45
2019-04-05T15:23:20.045Z,100739.22
2019-04-05T15:25:53.733Z,100734.30
2019-04-05T15:28:27.540Z,100729.58
2019-04-05T15:31:01.228Z,100732.79
2019-04-05T15:33:34.969Z,100735.20
2019-04-05T15:36:08.658Z,100739.10
2019-04-05T15:38:42.479Z,100731.97
2019-04-05T15:41:16.326Z,100732.99
2019-04-05T15:43:50.429Z,100744.54
2019-04-05T15:46:25.237Z,100738.63
2019-04-05T15:48:58.944Z,100734.70
2019-04-05T15:51:32.908Z,100731.66
2019-04-05T15:54:06.760Z,100732.78
2019-04-05T15:56:41.149Z,100730.74
2019-04-05T15:59:14.980Z,100723.59
2019-04-05T16:01:48.746Z,100721.70
2019-04-05T16:04:22.964Z,100725.27
2019-04-05T16:06:57.056Z,100726.78
2019-04-05T16:09:31.225Z,100724.75
2019-04-05T16:12:05.252Z,100726.11
2019-04-05T16:14:39.013Z,100723.83
2019-04-05T16:17:13.038Z,100724.58
2019-04-05T16:19:47.150Z,100723.84
2019-04-05T16:22:30.788Z,100717.64
2019-04-05T16:24:56.299Z,100721.30
2019-04-05T16:27:30.410Z,100721.93
2019-04-05T16:30:04.983Z,100717.42
2019-04-05T16:32:39.069Z,100717.11
2019-04-05T16:35:14.834Z,100714.91
2019-04-05T16:37:48.619Z,100718.19
2019-04-05T16:40:22.728Z,100716.22
2019-04-05T16:43:02.845Z,100716.39
2019-04-05T16:45:32.046Z,100717.09
2019-04-05T16:48:05.885Z,100717.75
2019-04-05T16:50:42.177Z,100722.06
2019-04-05T16:53:15.060Z,100723.68
2019-04-05T16:55:49.080Z,100721.19
2019-04-05T17:00:56.189Z,100715.42
2019-04-05T17:03:29.898Z,100709.42
2019-04-05T17:06:03.951Z,100717.34
2019-04-05T17:08:37.643Z,100712.06
2019-04-05T17:11:11.388Z,100713.52
2019-04-05T17:13:45.520Z,100715.03
2019-04-05T17:16:19.258Z,100722.48
2019-04-05T17:18:52.955Z,100718.30
2019-04-05T17:21:26.749Z,100714.86
2019-04-05T17:24:00.462Z,100721.42
2019-04-05T17:26:34.802Z,100720.58
2019-04-05T17:29:08.501Z,100721.37
2019-04-05T17:31:42.237Z,100722.38
2019-04-05T17:34:16.000Z,100723.28
2019-04-05T17:36:49.783Z,100729.69
2019-04-05T17:39:23.478Z,100726.55
2019-04-05T17:41:57.225Z,100724.55
2019-04-05T17:44:30.924Z,100729.95
2019-04-05T17:47:04.808Z,100728.95
2019-04-05T17:49:38.535Z,100729.66
2019-04-05T17:52:12.631Z,100727.30
2019-04-05T17:54:46.332Z,100727.65
2019-04-05T17:57:20.707Z,100731.41
2019-04-05T17:59:54.550Z,100725.09
2019-04-05T18:02:28.755Z,100719.98
2019-04-05T18:05:02.467Z,100730.76
2019-04-05T18:07:36.261Z,100727.48
2019-04-05T18:10:10.100Z,100719.97
2019-04-05T18:12:43.835Z,100724.68
2019-04-05T18:15:17.825Z,100729.29
2019-04-05T18:17:51.547Z,100716.31
2019-04-05T18:20:25.309Z,100726.28
2019-04-05T18:22:59.042Z,100726.05
2019-04-05T18:25:32.797Z,100728.52
2019-04-05T18:28:06.543Z,100736.31
2019-04-05T18:30:40.230Z,100735.60
2019-04-05T18:33:13.953Z,100731.84
2019-04-05T18:35:47.655Z,100733.40
2019-04-05T18:38:21.382Z,100733.25
2019-04-05T18:40:55.077Z,100735.13
2019-04-05T18:43:29.065Z,100736.12
2019-04-05T18:46:02.761Z,100737.44
2019-04-05T18:48:36.743Z,100739.47
2019-04-05T18:51:10.451Z,100740.28
2019-04-05T18:53:44.212Z,100744.02
2019-04-05T18:56:17.916Z,100744.20
2019-04-05T18:58:51.655Z,100743.70
2019-04-05T19:01:25.632Z,100742.56
2019-04-05T19:03:59.679Z,100744.63
2019-04-05T19:06:33.460Z,100742.16
2019-04-05T19:09:08.287Z,100750.31
2019-04-05T19:11:41.970Z,100750.81
2019-04-05T19:14:15.699Z,100756.22
2019-04-05T19:16:49.696Z,100758.70
2019-04-05T19:19:23.494Z,100761.16
2019-04-05T19:21:57.210Z,100757.61
2019-04-05T19:24:31.214Z,100755.83
2019-04-05T19:27:05.085Z,100758.03
2019-04-05T19:29:38.827Z,100752.84
2019-04-05T19:50:22.408Z,100752.78
2019-04-05T19:52:56.527Z,100759.81
2019-04-05T19:55:30.352Z,100763.23
2019-04-05T19:58:04.152Z,100765.64
2019-04-05T20:00:37.911Z,100768.27
2019-04-05T20:03:11.628Z,100764.15
2019-04-05T20:05:45.448Z,100763.80
2019-04-05T20:08:19.431Z,100765.14
2019-04-05T20:10:53.544Z,100773.24
2019-04-05T20:13:27.222Z,100771.33
2019-04-05T20:16:01.395Z,100765.86
2019-04-05T20:18:35.156Z,100767.06
2019-04-05T20:21:09.088Z,100767.09
2019-04-05T20:23:47.488Z,100759.42
2019-04-05T20:26:18.289Z,100760.06
2019-04-05T20:28:52.007Z,100752.00
2019-04-05T20:31:26.110Z,100757.89
2019-04-05T20:33:59.768Z,100755.20
2019-04-05T20:36:33.857Z,100756.72
2019-04-05T20:39:08.195Z,100759.25
2019-04-05T20:41:41.967Z,100758.57
2019-04-05T20:44:15.678Z,100759.41
2019-04-05T20:46:49.420Z,100759.06
2019-04-05T20:49:23.126Z,100753.02
2019-04-05T20:51:57.498Z,100758.56
2019-04-05T20:54:31.553Z,100757.50
2019-04-05T20:57:05.454Z,100766.31
2019-04-05T20:59:39.155Z,100766.31
2019-04-05T21:02:12.899Z,100764.61
2019-04-05T21:04:46.616Z,100760.95
2019-04-05T21:07:20.352Z,100769.77
2019-04-05T21:09:54.154Z,100765.00
2019-04-05T21:12:27.889Z,100763.30
2019-04-05T21:15:01.606Z,100763.09
2019-04-05T21:17:35.388Z,100763.80
2019-04-05T21:20:09.444Z,100759.39
2019-04-05T21:22:43.204Z,100761.59
2019-04-05T21:25:16.917Z,100768.41
2019-04-05T21:27:50.754Z,100766.17
2019-04-05T21:30:24.473Z,100767.66
2019-04-05T21:32:58.525Z,100769.64
2019-04-05T21:35:32.535Z,100771.98
2019-04-05T21:38:06.426Z,100775.18
2019-04-05T21:40:40.189Z,100777.10
2019-04-05T21:43:14.314Z,100779.23
2019-04-05T21:45:48.077Z,100779.23
2019-04-05T21:48:21.877Z,100780.86
2019-04-05T21:50:55.736Z,100782.87
2019-04-05T21:53:30.139Z,100779.59
2019-04-05T21:56:03.911Z,100785.69
2019-04-05T21:58:37.720Z,100787.97
2019-04-05T22:01:11.969Z,100795.22
2019-04-05T22:03:45.874Z,100793.73
2019-04-05T22:06:19.635Z,100793.80
2019-04-05T22:08:53.772Z,100790.82
2019-04-05T22:11:28.000Z,100788.91
2019-04-05T22:14:01.868Z,100787.20
2019-04-05T22:16:35.927Z,100779.95
2019-04-05T22:19:09.670Z,100782.72
2019-04-05T22:21:43.476Z,100777.88
2019-04-05T22:24:17.272Z,100782.42
2019-04-05T22:26:51.069Z,100776.95
2019-04-05T22:29:24.914Z,100785.55
2019-04-05T22:31:58.693Z,100781.72
2019-04-05T22:34:32.815Z,100778.31
2019-04-05T22:37:06.597Z,100774.62
2019-04-05T22:39:40.457Z,100773.55
2019-04-05T22:42:14.307Z,100757.77
2019-04-05T22:44:48.155Z,100762.32
2019-04-05T22:47:21.952Z,100758.08
2019-04-05T22:49:55.833Z,100763.31
2019-04-05T22:52:29.623Z,100763.45
2019-04-05T22:55:11.008Z,100764.16
2019-04-05T22:57:39.360Z,100760.41
2019-04-05T23:00:14.710Z,100766.37
2019-04-05T23:02:48.501Z,100775.84
2019-04-05T23:05:22.327Z,100780.59
2019-04-05T23:07:56.121Z,100775.77
2019-04-05T23:10:29.955Z,100780.02
2019-04-05T23:13:03.743Z,100774.61
2019-04-05T23:15:37.817Z,100778.79
2019-04-05T23:18:11.621Z,100782.36
2019-04-05T23:20:45.492Z,100780.73
2019-04-05T23:23:19.290Z,100782.09
2019-04-05T23:25:53.455Z,100774.77
2019-04-05T23:28:27.237Z,100777.68
2019-04-05T23:31:01.077Z,100777.62
2019-04-05T23:33:34.872Z,100776.45
2019-04-05T23:36:08.683Z,100770.28
2019-04-05T23:38:42.707Z,100763.47
2019-04-05T23:41:16.553Z,100763.39
2019-04-05T23:43:50.673Z,100755.93
2019-04-05T23:46:24.909Z,100751.53
2019-04-05T23:48:58.698Z,100752.59
2019-04-05T23:51:32.527Z,100757.56
2019-04-05T23:54:06.313Z,100753.11
2019-04-05T23:56:40.427Z,100751.33
2019-04-05T23:59:14.344Z,100749.70
